Time;durP1;ratioP1;P1;durP2;ratioP2;P2;SDS_P1;SDS_P2;PMS_P1;PMS_P2;Temp;Humidity;BMP_temperature;BMP_pressure;BME280_temperature;BME280_humidity;BME280_pressure;Samples;Min_cycle;Max_cycle;Signal;HPM_P1;HPM_P2
2024/03/30 00:00:14;;;;;;;91.15;56.60;;;;;;;;;;5093132;28;20058;-42
2024/03/30 00:02:40;;;;;;;76.90;53.10;;;;;;;;;;5094304;28;20304;-38
2024/03/30 00:05:07;;;;;;;86.30;51.28;;;;;;;;;;5085767;28;20020;-38
2024/03/30 00:07:40;;;;;;;80.68;49.08;;;;;;;;;;5085100;28;20017;-38
2024/03/30 00:10:07;;;;;;;72.28;50.25;;;;;;;;;;5097189;28;20052;-44
2024/03/30 00:12:33;;;;;;;83.57;50.55;;;;;;;;;;5100896;28;20043;-47
2024/03/30 00:15:00;;;;;;;82.00;49.38;;;;;;;;;;5105825;28;20030;-48
2024/03/30 00:17:26;;;;;;;66.57;47.78;;;;;;;;;;5090685;28;20036;-38
2024/03/30 00:19:53;;;;;;;63.45;48.35;;;;;;;;;;5085248;28;20040;-38
2024/03/30 00:22:19;;;;;;;72.60;48.17;;;;;;;;;;5084870;28;20024;-43
2024/03/30 00:24:46;;;;;;;66.55;48.13;;;;;;;;;;5085065;28;20020;-36
2024/03/30 00:27:13;;;;;;;80.45;54.30;;;;;;;;;;5084813;28;20051;-49
2024/03/30 00:29:39;;;;;;;70.15;57.70;;;;;;;;;;5084782;28;20044;-49
2024/03/30 00:32:06;;;;;;;108.68;50.45;;;;;;;;;;5084557;28;20036;-43
2024/03/30 00:34:32;;;;;;;823.80;98.22;;;;;;;;;;5084828;28;20025;-39
2024/03/30 00:36:59;;;;;;;154.60;49.17;;;;;;;;;;5082479;28;20027;-47
2024/03/30 00:39:26;;;;;;;88.30;45.63;;;;;;;;;;5091879;28;20050;-41
2024/03/30 00:41:53;;;;;;;99.53;46.15;;;;;;;;;;5104663;28;20020;-36
2024/03/30 00:44:19;;;;;;;61.30;44.60;;;;;;;;;;5105018;28;20197;-43
2024/03/30 00:46:46;;;;;;;61.22;44.03;;;;;;;;;;5100190;28;20257;-46
2024/03/30 00:49:12;;;;;;;76.03;45.08;;;;;;;;;;5095778;28;20149;-36
2024/03/30 00:51:39;;;;;;;59.22;43.05;;;;;;;;;;5095467;28;20162;-37
2024/03/30 00:54:06;;;;;;;64.05;44.47;;;;;;;;;;5089383;28;20083;-41
2024/03/30 00:56:32;;;;;;;57.45;43.97;;;;;;;;;;5094284;28;20027;-44
2024/03/30 00:59:00;;;;;;;57.47;43.55;;;;;;;;;;5095596;28;20023;-43
2024/03/30 01:01:27;;;;;;;56.08;42.78;;;;;;;;;;5085873;28;20050;-45
2024/03/30 01:03:53;;;;;;;57.83;42.88;;;;;;;;;;5084407;28;20025;-45
2024/03/30 01:06:20;;;;;;;50.53;44.20;;;;;;;;;;5084134;28;20021;-52
2024/03/30 01:08:47;;;;;;;48.72;42.67;;;;;;;;;;5084053;28;20316;-47
2024/03/30 01:11:13;;;;;;;55.13;42.47;;;;;;;;;;5091117;28;20316;-45
2024/03/30 01:13:40;;;;;;;47.38;41.33;;;;;;;;;;5087983;28;20091;-45
2024/03/30 01:16:13;;;;;;;47.03;42.00;;;;;;;;;;5093119;28;20028;-47
2024/03/30 01:18:40;;;;;;;49.67;41.50;;;;;;;;;;5085593;28;20025;-52
2024/03/30 01:21:06;;;;;;;44.42;40.03;;;;;;;;;;5083879;28;20028;-46
2024/03/30 01:23:33;;;;;;;52.30;42.30;;;;;;;;;;5083625;28;20205;-35
2024/03/30 01:26:00;;;;;;;46.47;40.70;;;;;;;;;;5084292;28;20023;-41
2024/03/30 01:28:29;;;;;;;45.65;40.90;;;;;;;;;;5094833;28;20076;-46
2024/03/30 01:30:55;;;;;;;45.13;40.38;;;;;;;;;;5090846;28;20067;-49
2024/03/30 01:33:22;;;;;;;46.72;41.72;;;;;;;;;;5087235;28;20016;-39
2024/03/30 01:35:49;;;;;;;46.22;41.33;;;;;;;;;;5086756;28;20099;-47
2024/03/30 01:38:15;;;;;;;45.20;39.67;;;;;;;;;;5092299;28;20092;-47
2024/03/30 01:40:42;;;;;;;45.42;40.67;;;;;;;;;;5086631;28;20320;-37
2024/03/30 01:43:08;;;;;;;48.00;40.42;;;;;;;;;;5092683;28;20269;-37
2024/03/30 01:45:35;;;;;;;44.33;39.70;;;;;;;;;;5088469;28;20024;-34
2024/03/30 01:48:04;;;;;;;44.83;40.00;;;;;;;;;;5091859;28;20216;-50
2024/03/30 01:50:31;;;;;;;67.25;42.97;;;;;;;;;;5095562;28;20024;-39
2024/03/30 01:52:59;;;;;;;47.53;41.35;;;;;;;;;;5098858;28;20242;-37
2024/03/30 01:55:26;;;;;;;73.63;42.17;;;;;;;;;;5088527;28;20178;-41
2024/03/30 01:57:54;;;;;;;44.85;40.03;;;;;;;;;;5096301;28;20028;-41
2024/03/30 02:00:21;;;;;;;51.25;40.92;;;;;;;;;;5106967;28;20035;-44
2024/03/30 02:02:49;;;;;;;44.25;39.40;;;;;;;;;;5107924;28;20216;-42
2024/03/30 02:05:15;;;;;;;46.58;40.55;;;;;;;;;;5108520;28;20204;-37
2024/03/30 02:07:44;;;;;;;46.03;41.10;;;;;;;;;;5107829;28;20024;-36
2024/03/30 02:10:12;;;;;;;46.70;41.47;;;;;;;;;;5107733;28;20031;-42
2024/03/30 02:12:40;;;;;;;45.55;40.42;;;;;;;;;;5100438;28;20052;-39
2024/03/30 02:15:07;;;;;;;44.38;39.67;;;;;;;;;;5099294;28;20028;-39
2024/03/30 02:17:33;;;;;;;43.75;39.50;;;;;;;;;;5099419;28;20039;-38
2024/03/30 02:20:00;;;;;;;45.58;40.78;;;;;;;;;;5092635;28;20054;-39
2024/03/30 02:22:27;;;;;;;44.92;40.40;;;;;;;;;;5106069;28;20031;-37
2024/03/30 02:24:54;;;;;;;44.60;39.80;;;;;;;;;;5108100;28;20020;-41
2024/03/30 02:27:20;;;;;;;44.75;40.28;;;;;;;;;;5102523;28;20326;-40
2024/03/30 02:29:57;;;;;;;46.22;41.28;;;;;;;;;;5095861;28;20328;-37
2024/03/30 02:32:24;;;;;;;45.45;40.65;;;;;;;;;;5087231;28;20209;-39
2024/03/30 02:34:51;;;;;;;44.72;40.35;;;;;;;;;;5087541;28;20275;-42
2024/03/30 02:37:18;;;;;;;45.47;41.10;;;;;;;;;;5086833;28;20072;-36
2024/03/30 02:39:45;;;;;;;43.38;39.30;;;;;;;;;;5087449;28;20088;-36
2024/03/30 02:42:11;;;;;;;46.13;41.42;;;;;;;;;;5087302;28;20217;-44
2024/03/30 02:44:38;;;;;;;43.83;39.72;;;;;;;;;;5087195;28;20024;-45
2024/03/30 02:47:04;;;;;;;48.33;41.28;;;;;;;;;;5086851;28;20071;-38
2024/03/30 02:49:32;;;;;;;44.78;39.65;;;;;;;;;;5087208;28;20078;-37
2024/03/30 02:51:58;;;;;;;44.70;40.50;;;;;;;;;;5097232;28;20024;-37
2024/03/30 02:54:25;;;;;;;44.85;40.45;;;;;;;;;;5107427;28;20028;-38
2024/03/30 02:56:51;;;;;;;45.08;40.58;;;;;;;;;;5107119;28;20172;-42
2024/03/30 02:59:18;;;;;;;45.30;40.83;;;;;;;;;;5107272;28;20032;-47
2024/03/30 03:01:45;;;;;;;44.55;40.28;;;;;;;;;;5105929;28;20065;-37
2024/03/30 03:04:12;;;;;;;44.03;39.90;;;;;;;;;;5107276;28;20020;-41
2024/03/30 03:06:38;;;;;;;45.40;40.72;;;;;;;;;;5105795;28;20066;-46
2024/03/30 03:09:05;;;;;;;45.33;40.80;;;;;;;;;;5106023;28;20016;-41
2024/03/30 03:11:33;;;;;;;46.58;41.42;;;;;;;;;;5098172;28;20098;-43
2024/03/30 03:14:00;;;;;;;44.97;40.42;;;;;;;;;;5086556;28;20032;-40
2024/03/30 03:16:26;;;;;;;47.08;40.60;;;;;;;;;;5097159;28;20242;-46
2024/03/30 03:18:53;;;;;;;50.53;40.65;;;;;;;;;;5106922;28;20201;-50
2024/03/30 03:21:19;;;;;;;45.60;40.75;;;;;;;;;;5106316;28;20250;-50
2024/03/30 03:23:46;;;;;;;44.08;39.72;;;;;;;;;;5100312;28;20290;-44
2024/03/30 03:26:12;;;;;;;45.25;40.65;;;;;;;;;;5106710;28;20061;-43
2024/03/30 03:28:39;;;;;;;44.22;39.67;;;;;;;;;;5096670;28;20032;-46
2024/03/30 03:31:06;;;;;;;43.72;39.50;;;;;;;;;;5103435;28;20398;-48
2024/03/30 03:33:32;;;;;;;44.10;40.00;;;;;;;;;;5097498;28;20028;-43
2024/03/30 03:36:00;;;;;;;44.13;39.70;;;;;;;;;;5086104;28;20027;-42
2024/03/30 03:38:27;;;;;;;44.30;40.03;;;;;;;;;;5097240;28;20155;-45
2024/03/30 03:40:56;;;;;;;44.38;40.08;;;;;;;;;;5099384;28;20203;-43
2024/03/30 03:43:23;;;;;;;44.63;40.45;;;;;;;;;;5086035;28;20259;-42
2024/03/30 03:45:49;;;;;;;44.65;40.17;;;;;;;;;;5085895;28;20062;-52
2024/03/30 03:48:16;;;;;;;43.90;39.75;;;;;;;;;;5085839;28;20078;-45
2024/03/30 03:50:43;;;;;;;45.42;41.10;;;;;;;;;;5085979;28;20062;-42
2024/03/30 03:53:10;;;;;;;43.85;39.53;;;;;;;;;;5085682;28;20017;-50
2024/03/30 03:55:36;;;;;;;45.28;40.78;;;;;;;;;;5085839;28;20042;-52
2024/03/30 03:58:03;;;;;;;44.08;39.67;;;;;;;;;;5088028;28;20091;-53
2024/03/30 04:00:31;;;;;;;43.50;39.35;;;;;;;;;;5094808;28;20032;-49
2024/03/30 04:02:57;;;;;;;44.70;40.50;;;;;;;;;;5085665;28;20084;-43
2024/03/30 04:05:25;;;;;;;43.72;39.53;;;;;;;;;;5086040;28;20080;-46
2024/03/30 04:07:52;;;;;;;43.28;39.08;;;;;;;;;;5085408;28;20017;-50
2024/03/30 04:10:20;;;;;;;45.22;40.53;;;;;;;;;;5085735;28;20031;-49
2024/03/30 04:12:48;;;;;;;44.95;39.88;;;;;;;;;;5085154;28;20324;-50
2024/03/30 04:15:15;;;;;;;42.63;38.47;;;;;;;;;;5085446;28;20032;-49
2024/03/30 04:17:41;;;;;;;43.42;39.30;;;;;;;;;;5085269;28;20021;-52
2024/03/30 04:20:08;;;;;;;44.13;39.92;;;;;;;;;;5085380;28;20048;-42
2024/03/30 04:22:35;;;;;;;43.70;39.50;;;;;;;;;;5085273;28;20024;-52
2024/03/30 04:25:01;;;;;;;45.45;40.83;;;;;;;;;;5085737;28;20227;-42
2024/03/30 04:27:28;;;;;;;44.25;39.88;;;;;;;;;;5085125;28;20032;-48
2024/03/30 04:29:54;;;;;;;44.38;40.08;;;;;;;;;;5092938;28;20048;-44
2024/03/30 04:32:21;;;;;;;43.58;39.35;;;;;;;;;;5096225;28;20045;-43
2024/03/30 04:34:47;;;;;;;43.67;39.47;;;;;;;;;;5099716;28;20087;-49
2024/03/30 04:37:14;;;;;;;43.65;39.20;;;;;;;;;;5105075;28;20212;-42
2024/03/30 04:39:43;;;;;;;44.08;39.88;;;;;;;;;;5105035;28;20216;-44
2024/03/30 04:42:10;;;;;;;44.05;39.85;;;;;;;;;;5104834;28;20031;-43
2024/03/30 04:44:37;;;;;;;44.33;40.25;;;;;;;;;;5105043;28;20087;-51
2024/03/30 04:47:04;;;;;;;45.13;40.55;;;;;;;;;;5104944;28;20020;-54
2024/03/30 04:49:31;;;;;;;43.85;39.35;;;;;;;;;;5105068;28;20087;-42
2024/03/30 04:51:57;;;;;;;44.60;39.90;;;;;;;;;;5104614;28;20088;-43
2024/03/30 04:54:24;;;;;;;44.80;40.25;;;;;;;;;;5105131;28;20027;-50
2024/03/30 04:56:50;;;;;;;44.20;38.83;;;;;;;;;;5104969;28;20083;-40
2024/03/30 04:59:17;;;;;;;49.03;41.28;;;;;;;;;;5104756;28;20035;-45
2024/03/30 05:01:43;;;;;;;46.78;40.17;;;;;;;;;;5104898;28;20268;-41
2024/03/30 05:04:10;;;;;;;43.92;39.47;;;;;;;;;;5105025;28;20185;-47
2024/03/30 05:06:37;;;;;;;43.45;39.05;;;;;;;;;;5104490;28;20032;-45
2024/03/30 05:09:03;;;;;;;43.40;39.15;;;;;;;;;;5104676;28;20024;-40
2024/03/30 05:11:30;;;;;;;45.45;40.85;;;;;;;;;;5104475;28;20077;-42
2024/03/30 05:13:56;;;;;;;43.22;38.90;;;;;;;;;;5104618;28;20035;-50
2024/03/30 05:16:23;;;;;;;44.80;40.33;;;;;;;;;;5104603;28;20024;-50
2024/03/30 05:18:49;;;;;;;44.28;40.00;;;;;;;;;;5104489;28;20020;-50
2024/03/30 05:21:16;;;;;;;45.20;40.95;;;;;;;;;;5103730;28;20046;-49
2024/03/30 05:23:45;;;;;;;43.78;39.35;;;;;;;;;;5091227;28;20031;-44
2024/03/30 05:26:11;;;;;;;45.17;40.97;;;;;;;;;;5104438;28;20016;-50
2024/03/30 05:28:38;;;;;;;44.22;40.03;;;;;;;;;;5103902;28;20024;-45
2024/03/30 05:31:29;;;;;;;44.67;40.47;;;;;;;;;;5096836;28;20435;-48
2024/03/30 05:33:56;;;;;;;44.53;40.17;;;;;;;;;;5087946;28;20032;-53
2024/03/30 05:36:22;;;;;;;44.53;40.22;;;;;;;;;;5083957;28;20064;-50
2024/03/30 05:38:49;;;;;;;43.33;39.30;;;;;;;;;;5084350;28;20373;-43
2024/03/30 05:41:15;;;;;;;45.05;40.75;;;;;;;;;;5083844;28;20224;-46
2024/03/30 05:43:42;;;;;;;44.63;40.40;;;;;;;;;;5083835;28;20021;-42
2024/03/30 05:46:09;;;;;;;44.42;39.70;;;;;;;;;;5084320;28;20168;-52
2024/03/30 05:48:36;;;;;;;44.10;39.75;;;;;;;;;;5083854;28;20016;-52
2024/03/30 05:51:04;;;;;;;43.75;39.55;;;;;;;;;;5083786;28;20024;-47
2024/03/30 05:53:31;;;;;;;43.95;39.75;;;;;;;;;;5091734;28;20216;-51
2024/03/30 05:55:57;;;;;;;43.40;39.10;;;;;;;;;;5104002;28;20217;-48
2024/03/30 05:58:24;;;;;;;44.40;40.33;;;;;;;;;;5103865;28;20266;-43
2024/03/30 06:00:50;;;;;;;43.78;39.58;;;;;;;;;;5104593;28;20028;-49
2024/03/30 06:03:17;;;;;;;44.22;40.03;;;;;;;;;;5104092;28;20020;-52
2024/03/30 06:05:43;;;;;;;45.30;41.03;;;;;;;;;;5103761;28;20042;-49
2024/03/30 06:08:10;;;;;;;45.75;41.05;;;;;;;;;;5104146;28;20016;-48
2024/03/30 06:10:36;;;;;;;45.65;41.38;;;;;;;;;;5103865;28;20028;-51
2024/03/30 06:13:03;;;;;;;43.63;39.35;;;;;;;;;;5103670;28;20027;-44
2024/03/30 06:15:30;;;;;;;44.83;40.67;;;;;;;;;;5104518;28;20031;-44
2024/03/30 06:17:57;;;;;;;45.25;40.90;;;;;;;;;;5103993;28;20028;-53
2024/03/30 06:20:23;;;;;;;44.70;40.35;;;;;;;;;;5103865;28;20048;-58
2024/03/30 06:22:50;;;;;;;44.17;40.03;;;;;;;;;;5103731;28;20020;-44
2024/03/30 06:25:17;;;;;;;44.63;40.42;;;;;;;;;;5104085;28;20065;-46
2024/03/30 06:27:43;;;;;;;44.65;40.70;;;;;;;;;;5103501;28;20031;-42
2024/03/30 06:30:12;;;;;;;45.38;40.55;;;;;;;;;;5103593;28;20040;-44
2024/03/30 06:32:38;;;;;;;44.25;40.25;;;;;;;;;;5103545;28;20047;-51
2024/03/30 06:35:05;;;;;;;43.13;39.25;;;;;;;;;;5105253;28;20200;-50
2024/03/30 06:37:32;;;;;;;46.00;41.42;;;;;;;;;;5106724;28;20016;-50
2024/03/30 06:45:28;;;;;;;45.40;41.08;;;;;;;;;;5107649;28;20030;-49
2024/03/30 06:47:55;;;;;;;44.65;40.40;;;;;;;;;;5107242;28;20032;-44
2024/03/30 06:50:21;;;;;;;45.25;40.67;;;;;;;;;;5107618;28;20028;-53
2024/03/30 06:52:48;;;;;;;47.33;42.60;;;;;;;;;;5107148;28;20020;-49
2024/03/30 06:55:16;;;;;;;45.72;41.42;;;;;;;;;;5107262;28;20069;-47
2024/03/30 06:57:42;;;;;;;46.38;41.95;;;;;;;;;;5107011;28;20032;-52
2024/03/30 07:00:09;;;;;;;44.83;40.65;;;;;;;;;;5107279;28;20027;-49
2024/03/30 07:02:35;;;;;;;45.05;40.92;;;;;;;;;;5096310;28;20035;-53
2024/03/30 07:05:02;;;;;;;45.42;41.42;;;;;;;;;;5086936;28;20020;-52
2024/03/30 07:07:29;;;;;;;44.22;40.22;;;;;;;;;;5086487;28;20331;-56
2024/03/30 07:09:55;;;;;;;44.95;40.55;;;;;;;;;;5086683;28;20304;-54
2024/03/30 07:12:22;;;;;;;44.28;40.25;;;;;;;;;;5086453;28;20017;-54
2024/03/30 07:14:49;;;;;;;43.80;39.83;;;;;;;;;;5086741;28;20208;-52
2024/03/30 07:17:15;;;;;;;44.75;40.53;;;;;;;;;;5086168;28;20245;-52
2024/03/30 07:19:42;;;;;;;44.45;40.25;;;;;;;;;;5086582;28;20173;-44
2024/03/30 07:22:08;;;;;;;44.63;40.53;;;;;;;;;;5086185;28;20220;-50
2024/03/30 07:24:35;;;;;;;43.85;39.63;;;;;;;;;;5086296;28;20020;-50
2024/03/30 07:27:02;;;;;;;43.95;39.65;;;;;;;;;;5087310;28;20050;-48
2024/03/30 07:29:29;;;;;;;45.42;41.35;;;;;;;;;;5086128;28;20052;-54
2024/03/30 07:31:56;;;;;;;45.63;41.33;;;;;;;;;;5090188;28;20403;-49
2024/03/30 07:34:23;;;;;;;44.95;40.65;;;;;;;;;;5106594;28;20260;-58
2024/03/30 07:36:50;;;;;;;44.10;40.13;;;;;;;;;;5106189;28;20027;-50
2024/03/30 07:39:16;;;;;;;43.00;39.10;;;;;;;;;;5106222;28;20083;-57
2024/03/30 07:41:43;;;;;;;43.63;39.55;;;;;;;;;;5106160;28;20312;-52
2024/03/30 07:44:10;;;;;;;44.75;40.40;;;;;;;;;;5106371;28;20079;-47
2024/03/30 07:46:36;;;;;;;43.33;39.13;;;;;;;;;;5105293;28;20050;-43
2024/03/30 07:49:04;;;;;;;46.13;41.55;;;;;;;;;;5106267;28;20055;-43
2024/03/30 07:51:31;;;;;;;48.75;43.58;;;;;;;;;;5106210;28;20077;-50
2024/03/30 07:53:57;;;;;;;46.85;42.33;;;;;;;;;;5105869;28;20028;-52
2024/03/30 07:56:24;;;;;;;44.35;40.00;;;;;;;;;;5105873;28;20027;-47
2024/03/30 07:58:51;;;;;;;45.38;41.25;;;;;;;;;;5105855;28;20023;-51
2024/03/30 08:01:18;;;;;;;43.88;39.70;;;;;;;;;;5105502;28;20220;-49
2024/03/30 08:03:44;;;;;;;42.80;38.85;;;;;;;;;;5105986;28;20012;-47
2024/03/30 08:06:11;;;;;;;44.53;40.20;;;;;;;;;;5105611;28;20035;-48
2024/03/30 08:08:37;;;;;;;43.60;39.45;;;;;;;;;;5105583;28;20075;-56
2024/03/30 08:11:04;;;;;;;42.70;38.90;;;;;;;;;;5105518;28;20044;-53
2024/03/30 08:13:31;;;;;;;43.58;39.38;;;;;;;;;;5105464;28;20028;-46
2024/03/30 08:15:57;;;;;;;42.58;38.65;;;;;;;;;;5105519;28;20087;-43
2024/03/30 08:18:24;;;;;;;43.42;39.60;;;;;;;;;;5105295;28;20031;-54
2024/03/30 08:20:50;;;;;;;43.25;39.05;;;;;;;;;;5105982;28;20034;-54
2024/03/30 08:23:17;;;;;;;42.35;38.45;;;;;;;;;;5105348;28;20212;-43
2024/03/30 08:25:45;;;;;;;42.08;38.00;;;;;;;;;;5105183;28;20241;-56
2024/03/30 08:28:12;;;;;;;42.10;38.28;;;;;;;;;;5105198;28;20213;-44
2024/03/30 08:30:38;;;;;;;42.40;38.38;;;;;;;;;;5104986;28;20056;-53
2024/03/30 08:33:05;;;;;;;43.03;38.90;;;;;;;;;;5105050;28;20027;-43
2024/03/30 08:35:32;;;;;;;43.58;39.25;;;;;;;;;;5105514;28;20339;-53
2024/03/30 08:37:58;;;;;;;42.50;38.80;;;;;;;;;;5105306;28;20308;-45
2024/03/30 08:40:25;;;;;;;41.78;37.80;;;;;;;;;;5104756;28;20031;-51
2024/03/30 08:42:51;;;;;;;43.03;38.92;;;;;;;;;;5105072;28;20088;-51
2024/03/30 08:45:18;;;;;;;41.80;37.97;;;;;;;;;;5105404;28;20020;-48
2024/03/30 08:47:45;;;;;;;42.88;39.00;;;;;;;;;;5105108;28;20031;-48
2024/03/30 08:50:12;;;;;;;43.88;39.58;;;;;;;;;;5105167;28;20079;-53
2024/03/30 08:52:39;;;;;;;44.13;40.03;;;;;;;;;;5104780;28;20024;-48
2024/03/30 08:55:05;;;;;;;44.35;40.08;;;;;;;;;;5104999;28;20089;-48
2024/03/30 08:57:32;;;;;;;43.42;39.17;;;;;;;;;;5104560;28;20099;-51
2024/03/30 08:59:58;;;;;;;42.35;38.25;;;;;;;;;;5104305;28;20018;-51
2024/03/30 09:02:26;;;;;;;43.65;39.55;;;;;;;;;;5104540;28;20369;-51
2024/03/30 09:04:53;;;;;;;42.38;38.42;;;;;;;;;;5104880;28;20024;-50
2024/03/30 09:07:20;;;;;;;43.22;38.95;;;;;;;;;;5104538;28;20026;-50
2024/03/30 09:09:46;;;;;;;42.10;37.85;;;;;;;;;;5104593;28;20013;-51
2024/03/30 09:12:14;;;;;;;42.38;38.38;;;;;;;;;;5088076;28;20029;-51
2024/03/30 09:14:40;;;;;;;43.92;39.80;;;;;;;;;;5084345;28;20031;-49
2024/03/30 09:17:07;;;;;;;44.47;39.72;;;;;;;;;;5083949;28;20024;-46
2024/03/30 09:19:33;;;;;;;44.00;39.63;;;;;;;;;;5084264;28;20040;-46
2024/03/30 09:22:00;;;;;;;44.55;39.85;;;;;;;;;;5084060;28;20021;-50
2024/03/30 09:24:27;;;;;;;44.33;40.13;;;;;;;;;;5083764;28;20027;-50
2024/03/30 09:26:56;;;;;;;42.90;38.70;;;;;;;;;;5084076;28;20029;-51
2024/03/30 09:29:23;;;;;;;44.42;39.95;;;;;;;;;;5083880;28;20051;-51
2024/03/30 09:31:49;;;;;;;43.53;39.33;;;;;;;;;;5083774;28;20020;-50
2024/03/30 09:34:16;;;;;;;44.15;39.63;;;;;;;;;;5084096;28;20083;-57
2024/03/30 09:36:42;;;;;;;42.22;38.22;;;;;;;;;;5083934;28;20073;-53
2024/03/30 09:39:09;;;;;;;43.08;38.58;;;;;;;;;;5083946;28;20095;-45
2024/03/30 09:42:02;;;;;;;42.50;38.38;;;;;;;;;;5083763;28;20036;-50
2024/03/30 09:44:28;;;;;;;42.80;38.50;;;;;;;;;;5081357;28;20028;-50
2024/03/30 09:46:55;;;;;;;42.45;38.17;;;;;;;;;;5084013;28;20021;-50
2024/03/30 09:49:24;;;;;;;42.90;38.65;;;;;;;;;;5083976;28;20084;-52
2024/03/30 09:51:51;;;;;;;42.15;37.78;;;;;;;;;;5083641;28;20044;-43
2024/03/30 09:54:19;;;;;;;42.33;37.95;;;;;;;;;;5083882;28;20189;-48
2024/03/30 09:56:46;;;;;;;41.05;36.92;;;;;;;;;;5083794;28;20070;-45
2024/03/30 09:59:14;;;;;;;41.15;36.63;;;;;;;;;;5083758;28;20021;-44
2024/03/30 10:01:40;;;;;;;39.80;35.75;;;;;;;;;;5083470;28;20070;-53
2024/03/30 10:04:07;;;;;;;40.55;36.55;;;;;;;;;;5084170;28;20227;-53
2024/03/30 10:06:37;;;;;;;39.55;35.63;;;;;;;;;;5083436;28;20020;-50
2024/03/30 10:09:05;;;;;;;42.33;36.05;;;;;;;;;;5083641;28;20028;-56
2024/03/30 10:11:32;;;;;;;40.08;36.17;;;;;;;;;;5087412;28;20028;-50
2024/03/30 10:14:02;;;;;;;40.60;36.70;;;;;;;;;;5087477;28;20021;-49
2024/03/30 10:16:28;;;;;;;39.88;36.22;;;;;;;;;;5087453;28;20031;-51
2024/03/30 10:18:55;;;;;;;39.80;35.95;;;;;;;;;;5087585;28;20300;-50
2024/03/30 10:21:22;;;;;;;43.03;35.15;;;;;;;;;;5086999;28;20084;-49
2024/03/30 10:23:49;;;;;;;41.45;37.15;;;;;;;;;;5087264;28;20399;-51
2024/03/30 10:26:18;;;;;;;39.42;35.63;;;;;;;;;;5087192;28;20198;-52
2024/03/30 10:28:45;;;;;;;41.75;37.42;;;;;;;;;;5087031;28;20027;-52
2024/03/30 10:31:12;;;;;;;39.42;35.45;;;;;;;;;;5087150;28;20040;-54
2024/03/30 10:33:38;;;;;;;39.97;35.95;;;;;;;;;;5087205;28;20016;-49
2024/03/30 10:36:05;;;;;;;40.97;36.95;;;;;;;;;;5086975;28;20039;-47
2024/03/30 10:38:32;;;;;;;40.78;36.63;;;;;;;;;;5087159;28;20040;-54
2024/03/30 10:40:58;;;;;;;38.90;34.97;;;;;;;;;;5086895;28;20039;-52
2024/03/30 10:43:25;;;;;;;40.47;36.08;;;;;;;;;;5086648;28;20020;-52
2024/03/30 10:45:51;;;;;;;40.08;36.15;;;;;;;;;;5086874;28;20031;-56
2024/03/30 10:48:18;;;;;;;41.00;36.92;;;;;;;;;;5086774;28;20208;-54
2024/03/30 10:50:45;;;;;;;39.45;35.35;;;;;;;;;;5086665;28;20028;-51
2024/03/30 10:53:11;;;;;;;41.72;36.63;;;;;;;;;;5086737;28;20020;-52
2024/03/30 10:55:38;;;;;;;40.28;35.92;;;;;;;;;;5086747;28;20036;-45
2024/03/30 10:58:05;;;;;;;40.92;35.80;;;;;;;;;;5086850;28;20028;-42
2024/03/30 11:00:32;;;;;;;42.40;36.83;;;;;;;;;;5086987;28;20304;-46
2024/03/30 11:02:59;;;;;;;40.15;35.33;;;;;;;;;;5086466;28;20035;-45
2024/03/30 11:05:29;;;;;;;67.78;36.83;;;;;;;;;;5086820;28;20016;-55
2024/03/30 11:07:55;;;;;;;46.10;36.55;;;;;;;;;;5086748;28;20044;-47
2024/03/30 11:10:23;;;;;;;49.03;35.78;;;;;;;;;;5086817;28;20083;-57
2024/03/30 11:12:49;;;;;;;51.80;35.78;;;;;;;;;;5086266;28;20028;-50
2024/03/30 11:15:16;;;;;;;43.55;37.03;;;;;;;;;;5086763;28;20155;-51
2024/03/30 11:17:48;;;;;;;43.35;36.38;;;;;;;;;;5086396;28;20039;-54
2024/03/30 11:20:15;;;;;;;87.75;37.28;;;;;;;;;;5086422;28;20027;-42
2024/03/30 11:22:41;;;;;;;48.15;35.90;;;;;;;;;;5085262;28;20031;-45
2024/03/30 11:25:13;;;;;;;54.00;37.40;;;;;;;;;;5086529;28;20086;-40
2024/03/30 11:27:58;;;;;;;48.05;37.35;;;;;;;;;;5086272;28;20048;-40
2024/03/30 11:30:29;;;;;;;40.55;35.08;;;;;;;;;;5085962;28;20044;-43
2024/03/30 11:33:01;;;;;;;49.35;35.55;;;;;;;;;;5085920;28;20028;-45
2024/03/30 11:35:28;;;;;;;50.72;36.05;;;;;;;;;;5086504;28;20031;-45
2024/03/30 11:37:57;;;;;;;43.78;35.58;;;;;;;;;;5086046;28;20100;-55
2024/03/30 11:40:32;;;;;;;50.65;38.60;;;;;;;;;;5086063;28;20036;-56
2024/03/30 11:43:07;;;;;;;69.90;38.63;;;;;;;;;;5085805;28;20030;-44
2024/03/30 11:45:36;;;;;;;144.27;41.17;;;;;;;;;;5086160;28;20020;-46
2024/03/30 11:48:03;;;;;;;93.10;40.30;;;;;;;;;;5085696;28;20025;-46
2024/03/30 11:50:29;;;;;;;75.70;39.63;;;;;;;;;;5086133;28;20028;-53
2024/03/30 11:52:56;;;;;;;70.00;39.00;;;;;;;;;;5085564;28;20040;-57
2024/03/30 11:55:28;;;;;;;72.40;40.38;;;;;;;;;;5085705;28;20028;-46
2024/03/30 11:57:54;;;;;;;53.95;38.30;;;;;;;;;;5085569;28;20024;-44
2024/03/30 12:00:24;;;;;;;53.28;38.03;;;;;;;;;;5085718;28;20031;-49
2024/03/30 12:02:51;;;;;;;54.45;37.47;;;;;;;;;;5085347;28;20038;-59
2024/03/30 12:05:23;;;;;;;52.42;38.40;;;;;;;;;;5085788;28;20087;-56
2024/03/30 12:07:53;;;;;;;53.92;38.90;;;;;;;;;;5085275;28;20316;-55
2024/03/30 12:10:20;;;;;;;46.25;37.75;;;;;;;;;;5085763;28;20048;-54
2024/03/30 12:12:46;;;;;;;50.55;39.63;;;;;;;;;;5085200;28;20016;-52
2024/03/30 12:15:13;;;;;;;53.13;39.38;;;;;;;;;;5085594;28;20046;-47
2024/03/30 12:17:41;;;;;;;51.97;39.33;;;;;;;;;;5093754;28;20020;-42
2024/03/30 12:20:09;;;;;;;50.05;39.92;;;;;;;;;;5088416;28;20025;-45
2024/03/30 12:22:35;;;;;;;55.35;38.33;;;;;;;;;;5085114;28;20032;-42
2024/03/30 12:25:02;;;;;;;53.00;39.05;;;;;;;;;;5085473;28;20042;-45
2024/03/30 12:27:28;;;;;;;65.82;39.97;;;;;;;;;;5085051;28;20017;-52
2024/03/30 12:29:55;;;;;;;57.55;40.40;;;;;;;;;;5085024;28;20052;-58
2024/03/30 12:32:22;;;;;;;60.55;39.90;;;;;;;;;;5084883;28;20224;-47
2024/03/30 12:34:49;;;;;;;65.50;41.05;;;;;;;;;;5085479;28;20240;-50
2024/03/30 12:37:16;;;;;;;59.92;39.38;;;;;;;;;;5084669;28;20024;-46
2024/03/30 12:39:42;;;;;;;59.42;41.70;;;;;;;;;;5084815;28;20024;-53
2024/03/30 12:42:09;;;;;;;53.50;39.83;;;;;;;;;;5103275;28;20024;-44
2024/03/30 12:44:35;;;;;;;57.53;39.83;;;;;;;;;;5105196;28;20122;-49
2024/03/30 12:47:02;;;;;;;60.83;40.53;;;;;;;;;;5104977;28;20075;-47
2024/03/30 12:49:34;;;;;;;56.55;39.85;;;;;;;;;;5105204;28;20028;-43
2024/03/30 12:52:00;;;;;;;;;;;;;;;;;;5105232;28;20047;-45
2024/03/30 12:54:27;;;;;;;47.35;38.28;;;;;;;;;;5105052;28;20236;-43
2024/03/30 12:56:53;;;;;;;45.55;37.72;;;;;;;;;;5104114;28;20338;-40
2024/03/30 12:59:20;;;;;;;51.38;37.08;;;;;;;;;;5104605;28;20028;-42
2024/03/30 13:01:47;;;;;;;48.10;37.15;;;;;;;;;;5104744;28;20319;-41
2024/03/30 13:04:13;;;;;;;49.13;38.10;;;;;;;;;;5104945;28;20192;-40
2024/03/30 13:06:43;;;;;;;48.38;37.00;;;;;;;;;;5104455;28;20250;-41
2024/03/30 13:09:23;;;;;;;43.35;37.60;;;;;;;;;;5104662;28;20173;-42
2024/03/30 13:11:50;;;;;;;51.97;37.58;;;;;;;;;;5104327;28;20024;-49
2024/03/30 13:14:16;;;;;;;45.42;37.22;;;;;;;;;;5104737;28;20294;-42
2024/03/30 13:16:43;;;;;;;41.17;36.75;;;;;;;;;;5104463;28;20031;-42
2024/03/30 13:19:11;;;;;;;40.17;35.85;;;;;;;;;;5104351;28;20095;-51
2024/03/30 13:21:41;;;;;;;41.30;36.97;;;;;;;;;;5104116;28;20043;-49
2024/03/30 13:24:07;;;;;;;41.97;37.47;;;;;;;;;;5104307;28;20020;-43
2024/03/30 13:26:34;;;;;;;43.20;36.65;;;;;;;;;;5104156;28;20016;-42
2024/03/30 13:29:02;;;;;;;40.33;35.35;;;;;;;;;;5104294;28;20125;-46
2024/03/30 13:31:28;;;;;;;39.78;35.58;;;;;;;;;;5101985;28;20351;-42
2024/03/30 13:33:55;;;;;;;39.40;35.15;;;;;;;;;;5104257;28;20028;-46
2024/03/30 13:36:22;;;;;;;39.47;35.38;;;;;;;;;;5104129;28;20024;-45
2024/03/30 13:38:48;;;;;;;41.03;35.42;;;;;;;;;;5104369;28;20020;-43
2024/03/30 13:41:15;;;;;;;39.42;35.55;;;;;;;;;;5103944;28;20055;-42
2024/03/30 13:43:42;;;;;;;38.22;34.40;;;;;;;;;;5104158;28;20296;-42
2024/03/30 13:46:09;;;;;;;39.20;35.05;;;;;;;;;;5103699;28;20028;-45
2024/03/30 13:48:35;;;;;;;40.95;35.10;;;;;;;;;;5104111;28;20070;-49
2024/03/30 13:51:02;;;;;;;40.58;36.13;;;;;;;;;;5104630;28;20158;-52
2024/03/30 13:53:29;;;;;;;38.95;35.13;;;;;;;;;;5104341;28;20057;-46
2024/03/30 13:55:55;;;;;;;43.97;37.30;;;;;;;;;;5104200;28;20091;-46
2024/03/30 13:58:25;;;;;;;42.22;36.72;;;;;;;;;;5103926;28;20092;-45
2024/03/30 14:00:55;;;;;;;48.30;40.60;;;;;;;;;;5103099;28;20040;-52
2024/03/30 14:03:22;;;;;;;44.63;39.88;;;;;;;;;;5104077;28;20012;-46
2024/03/30 14:05:49;;;;;;;45.40;40.70;;;;;;;;;;5103932;28;20109;-46
2024/03/30 14:08:15;;;;;;;44.80;39.97;;;;;;;;;;5103742;28;20062;-42
2024/03/30 14:10:42;;;;;;;45.55;40.78;;;;;;;;;;5103991;28;20032;-42
2024/03/30 14:13:08;;;;;;;53.35;47.58;;;;;;;;;;5104037;28;20048;-41
2024/03/30 14:15:35;;;;;;;50.45;45.38;;;;;;;;;;5103984;28;20028;-42
2024/03/30 14:18:01;;;;;;;48.95;43.95;;;;;;;;;;5103820;28;20071;-51
2024/03/30 14:20:28;;;;;;;47.42;42.63;;;;;;;;;;5103979;28;20028;-42